createdAt,value
2018-02-08T00:00:00.572Z,40.25
2018-02-08T00:02:28.049Z,40.25
2018-02-08T00:04:55.584Z,39.05
2018-02-08T00:07:23.064Z,39.25
2018-02-08T00:09:51.300Z,39.00
2018-02-08T00:12:18.768Z,39.22
2018-02-08T00:14:46.358Z,36.75
2018-02-08T00:17:14.603Z,39.30
2018-02-08T00:19:42.926Z,39.47
2018-02-08T00:22:10.392Z,41.97
2018-02-08T00:24:37.865Z,39.67
2018-02-08T00:27:05.349Z,38.70
2018-02-08T00:29:33.124Z,39.97
2018-02-08T00:32:00.593Z,39.92
2018-02-08T00:34:28.192Z,37.05
2018-02-08T00:36:55.724Z,39.88
2018-02-08T00:39:23.160Z,39.03
2018-02-08T00:41:50.628Z,38.83
2018-02-08T00:44:18.862Z,36.05
2018-02-08T00:46:46.336Z,39.55
2018-02-08T00:49:13.804Z,38.40
2018-02-08T00:51:41.291Z,38.17
2018-02-08T00:54:08.822Z,37.90
2018-02-08T00:56:36.304Z,37.72
2018-02-08T00:59:03.836Z,40.47
2018-02-08T01:01:31.338Z,39.42
2018-02-08T01:03:58.855Z,37.33
2018-02-08T01:06:26.440Z,35.80
2018-02-08T01:08:54.677Z,38.22
2018-02-08T01:11:22.156Z,39.38
2018-02-08T01:13:50.394Z,39.05
2018-02-08T01:16:17.860Z,38.88
2018-02-08T01:18:46.915Z,39.72
2018-02-08T01:21:14.416Z,38.88
2018-02-08T01:23:41.895Z,41.85
2018-02-08T01:26:10.153Z,38.55
2018-02-08T01:28:37.640Z,39.28
2018-02-08T01:31:05.108Z,37.47
2018-02-08T01:33:32.578Z,36.58
2018-02-08T01:36:00.086Z,37.92
2018-02-08T01:38:27.573Z,39.80
2018-02-08T01:40:55.040Z,42.17
2018-02-08T01:43:22.509Z,37.70
2018-02-08T01:45:49.976Z,38.22
2018-02-08T01:48:17.475Z,39.78
2018-02-08T01:50:45.032Z,39.38
2018-02-08T01:53:12.503Z,39.00
2018-02-08T01:55:40.733Z,37.50
2018-02-08T01:58:08.434Z,37.67
2018-02-08T02:00:35.972Z,40.75
2018-02-08T02:03:03.487Z,39.83
2018-02-08T02:05:30.956Z,38.97
2018-02-08T02:07:58.430Z,39.25
2018-02-08T02:10:25.909Z,38.10
2018-02-08T02:12:53.372Z,41.22
2018-02-08T02:15:21.637Z,38.72
2018-02-08T02:17:49.208Z,39.95
2018-02-08T02:20:16.668Z,38.40
2018-02-08T02:22:44.900Z,40.00
2018-02-08T02:25:12.480Z,37.30
2018-02-08T02:27:39.959Z,38.22
2018-02-08T02:30:07.518Z,39.33
2018-02-08T02:32:35.789Z,38.58
2018-02-08T02:35:04.156Z,39.00
2018-02-08T02:37:31.623Z,40.95
2018-02-08T02:39:59.168Z,40.95
2018-02-08T02:42:26.653Z,38.17
2018-02-08T02:44:54.892Z,36.97
2018-02-08T02:47:22.360Z,39.38
2018-02-08T02:49:49.841Z,37.50
2018-02-08T02:52:18.088Z,38.67
2018-02-08T02:54:45.628Z,38.67
2018-02-08T02:57:13.099Z,38.47
2018-02-08T02:59:40.566Z,37.13
2018-02-08T03:02:09.547Z,39.97
2018-02-08T03:04:37.015Z,40.65
2018-02-08T03:07:04.486Z,36.20
2018-02-08T03:09:32.727Z,38.83
2018-02-08T03:12:00.303Z,39.15
2018-02-08T03:14:27.767Z,37.45
2018-02-08T03:16:55.251Z,39.38
2018-02-08T03:19:22.887Z,36.30
2018-02-08T03:21:50.358Z,37.33
2018-02-08T03:24:18.592Z,39.70
2018-02-08T03:26:46.073Z,36.60
2018-02-08T03:29:14.300Z,39.13
2018-02-08T03:31:41.793Z,36.25
2018-02-08T03:34:09.266Z,36.03
2018-02-08T03:36:36.815Z,39.85
2018-02-08T03:39:04.304Z,37.75
2018-02-08T03:41:32.540Z,36.40
2018-02-08T03:44:00.009Z,37.08
2018-02-08T03:46:27.471Z,37.13
2018-02-08T03:48:54.944Z,36.60
2018-02-08T03:51:23.188Z,37.03
2018-02-08T03:53:52.182Z,38.70
2018-02-08T03:56:20.412Z,39.47
2018-02-08T03:58:47.886Z,37.75
2018-02-08T04:01:15.377Z,37.15
2018-02-08T04:03:42.843Z,37.03
2018-02-08T04:06:10.308Z,36.30
2018-02-08T04:08:38.562Z,35.05
2018-02-08T04:11:06.026Z,38.25
2018-02-08T04:13:33.492Z,39.85
2018-02-08T04:16:01.734Z,36.00
2018-02-08T04:18:29.234Z,38.45
2018-02-08T04:20:57.487Z,36.75
2018-02-08T04:23:24.977Z,39.03
2018-02-08T04:25:52.453Z,37.83
2018-02-08T04:28:19.925Z,35.17
2018-02-08T04:30:47.392Z,35.53
2018-02-08T04:33:14.887Z,38.60
2018-02-08T04:35:43.150Z,36.97
2018-02-08T04:38:17.625Z,35.35
2018-02-08T04:40:57.011Z,36.47
2018-02-08T04:46:59.274Z,34.88
2018-02-08T04:49:26.760Z,35.55
2018-02-08T04:51:54.411Z,39.20
2018-02-08T04:54:21.881Z,34.65
2018-02-08T04:56:49.443Z,36.50
2018-02-08T04:59:16.992Z,36.60
2018-02-08T05:01:44.469Z,37.97
2018-02-08T05:04:12.774Z,39.25
2018-02-08T05:06:40.271Z,38.45
2018-02-08T05:09:07.739Z,38.47
2018-02-08T05:11:35.287Z,38.15
2018-02-08T05:14:02.762Z,37.50
2018-02-08T05:16:31.021Z,35.78
2018-02-08T05:18:58.496Z,35.38
2018-02-08T05:21:26.054Z,34.38
2018-02-08T05:23:54.374Z,36.45
2018-02-08T05:26:21.836Z,37.30
2018-02-08T05:28:49.336Z,37.13
2018-02-08T05:31:18.306Z,36.65
2018-02-08T05:33:45.764Z,37.13
2018-02-08T05:36:13.227Z,33.35
2018-02-08T05:38:40.688Z,33.95
2018-02-08T05:41:08.168Z,36.33
2018-02-08T05:43:36.419Z,33.67
2018-02-08T05:46:03.996Z,36.30
2018-02-08T05:48:31.555Z,36.10
2018-02-08T05:50:59.829Z,35.97
2018-02-08T05:53:27.302Z,33.70
2018-02-08T05:55:55.648Z,34.55
2018-02-08T05:58:23.111Z,35.03
2018-02-08T06:00:50.580Z,31.60
2018-02-08T06:03:18.818Z,34.90
2018-02-08T06:05:46.284Z,34.65
2018-02-08T06:08:13.856Z,36.00
2018-02-08T06:10:41.432Z,33.45
2018-02-08T06:13:09.080Z,35.40
2018-02-08T06:15:36.650Z,33.78
2018-02-08T06:18:04.166Z,33.75
2018-02-08T06:20:32.362Z,33.70
2018-02-08T06:22:59.831Z,34.70
2018-02-08T06:25:27.297Z,34.05
2018-02-08T06:27:54.776Z,36.00
2018-02-08T06:30:23.018Z,36.08
2018-02-08T06:32:50.591Z,33.50
2018-02-08T06:35:18.821Z,35.05
2018-02-08T06:37:46.291Z,34.00
2018-02-08T06:40:13.754Z,34.70
2018-02-08T06:42:41.224Z,35.42
2018-02-08T06:45:08.695Z,33.53
2018-02-08T06:47:37.061Z,35.97
2018-02-08T06:50:04.608Z,34.03
2018-02-08T06:52:32.165Z,34.47
2018-02-08T06:54:59.641Z,33.65
2018-02-08T06:57:27.139Z,35.80
2018-02-08T06:59:54.656Z,35.78
2018-02-08T07:02:22.126Z,32.45
2018-02-08T07:04:50.361Z,36.95
2018-02-08T07:07:17.929Z,36.67
2018-02-08T07:09:45.447Z,33.40
2018-02-08T07:12:12.944Z,35.47
2018-02-08T07:14:40.504Z,34.85
2018-02-08T07:17:07.965Z,35.75
2018-02-08T07:19:36.297Z,38.03
2018-02-08T07:22:03.762Z,36.78
2018-02-08T07:24:31.237Z,38.25
2018-02-08T07:26:58.706Z,37.75
2018-02-08T07:29:26.202Z,40.53
2018-02-08T07:31:54.447Z,35.78
2018-02-08T07:34:21.906Z,37.20
2018-02-08T07:36:49.425Z,39.83
2018-02-08T07:39:17.608Z,36.47
2018-02-08T07:41:45.082Z,35.45
2018-02-08T07:44:12.550Z,39.08
2018-02-08T07:46:40.033Z,35.55
2018-02-08T07:49:08.276Z,37.33
2018-02-08T07:51:35.755Z,37.25
2018-02-08T07:54:04.000Z,36.70
2018-02-08T07:56:31.532Z,37.42
2018-02-08T07:58:59.008Z,39.95
2018-02-08T08:01:26.538Z,35.00
2018-02-08T08:03:54.185Z,38.20
2018-02-08T08:06:21.707Z,37.65
2018-02-08T08:08:49.870Z,36.92
2018-02-08T08:11:17.432Z,35.70
2018-02-08T08:13:45.092Z,37.75
2018-02-08T08:16:13.343Z,38.33
2018-02-08T08:18:40.963Z,38.88
2018-02-08T08:21:09.194Z,35.45
2018-02-08T08:23:36.656Z,38.33
2018-02-08T08:26:04.241Z,36.50
2018-02-08T08:28:31.701Z,33.83
2018-02-08T08:30:59.962Z,38.10
2018-02-08T08:33:27.423Z,35.50
2018-02-08T08:35:55.658Z,34.45
2018-02-08T08:38:23.135Z,35.08
2018-02-08T08:40:51.222Z,34.95
2018-02-08T08:43:18.775Z,35.47
2018-02-08T08:45:46.240Z,35.35
2018-02-08T08:48:13.703Z,35.20
2018-02-08T08:50:41.939Z,34.85
2018-02-08T08:53:09.420Z,32.97
2018-02-08T08:55:36.891Z,32.70
2018-02-08T08:58:04.359Z,31.87
2018-02-08T09:00:32.604Z,32.92
2018-02-08T09:03:00.881Z,33.47
2018-02-08T09:05:28.354Z,34.92
2018-02-08T09:07:56.735Z,35.08
2018-02-08T09:10:24.973Z,32.10
2018-02-08T09:12:52.469Z,31.17
2018-02-08T09:15:19.933Z,30.35
2018-02-08T09:17:48.171Z,32.42
2018-02-08T09:20:15.646Z,32.92
2018-02-08T09:22:43.109Z,31.95
2018-02-08T09:25:10.597Z,31.83
2018-02-08T09:27:38.070Z,32.38
2018-02-08T09:30:05.542Z,35.05
2018-02-08T09:32:33.017Z,33.17
2018-02-08T09:35:00.497Z,33.17
2018-02-08T09:37:27.952Z,35.83
2018-02-08T09:39:56.199Z,31.12
2018-02-08T09:42:23.669Z,29.17
2018-02-08T09:44:52.650Z,28.23
2018-02-08T09:47:20.113Z,29.83
2018-02-08T09:49:47.588Z,29.45
2018-02-08T09:52:15.063Z,28.92
2018-02-08T09:54:42.536Z,29.42
2018-02-08T09:57:10.013Z,26.92
2018-02-08T09:59:37.485Z,25.67
2018-02-08T10:02:04.944Z,23.75
2018-02-08T10:04:32.633Z,24.37
2018-02-08T10:07:00.291Z,23.95
2018-02-08T10:09:27.765Z,26.23
2018-02-08T10:11:56.026Z,26.12
2018-02-08T10:14:23.476Z,23.05
2018-02-08T10:16:50.945Z,22.85
2018-02-08T10:19:18.409Z,21.50
2018-02-08T10:21:46.674Z,22.95
2018-02-08T10:24:14.124Z,22.30
2018-02-08T10:26:41.582Z,21.75
2018-02-08T10:29:09.066Z,18.05
2018-02-08T10:31:36.539Z,20.52
2018-02-08T10:34:04.003Z,22.62
2018-02-08T10:36:31.522Z,17.58
2018-02-08T10:38:59.776Z,20.00
2018-02-08T10:41:27.258Z,19.15
2018-02-08T10:43:55.572Z,19.58
2018-02-08T10:46:23.058Z,22.47
2018-02-08T10:48:50.739Z,19.08
2018-02-08T10:51:19.015Z,15.67
2018-02-08T10:53:47.278Z,16.37
2018-02-08T10:56:14.744Z,19.47
2018-02-08T10:58:42.219Z,19.93
2018-02-08T11:01:10.461Z,23.13
2018-02-08T11:03:37.935Z,23.97
2018-02-08T11:06:05.401Z,21.30
2018-02-08T11:08:33.665Z,21.77
2018-02-08T11:11:01.135Z,20.53
2018-02-08T11:13:29.405Z,18.60
2018-02-08T11:15:57.640Z,19.80
2018-02-08T11:18:25.119Z,21.73
2018-02-08T11:20:52.592Z,23.27
2018-02-08T11:23:20.869Z,22.70
2018-02-08T11:25:49.126Z,23.45
2018-02-08T11:28:16.596Z,22.00
2018-02-08T11:30:44.064Z,21.60
2018-02-08T11:33:11.543Z,21.25
2018-02-08T11:35:39.047Z,20.07
2018-02-08T11:38:06.508Z,22.67
2018-02-08T11:40:33.998Z,22.27
2018-02-08T11:43:02.271Z,21.03
2018-02-08T11:45:30.514Z,20.33
2018-02-08T11:47:58.017Z,21.47
2018-02-08T11:50:25.539Z,18.80
2018-02-08T11:52:53.033Z,17.33
2018-02-08T11:55:20.500Z,18.70
2018-02-08T11:57:48.079Z,20.80
2018-02-08T12:00:15.572Z,19.13
2018-02-08T12:02:43.079Z,21.27
2018-02-08T12:05:10.580Z,21.97
2018-02-08T12:07:38.144Z,22.10
2018-02-08T12:10:05.700Z,20.47
2018-02-08T12:12:33.183Z,21.20
2018-02-08T12:15:01.451Z,20.50
2018-02-08T12:17:28.997Z,21.90
2018-02-08T12:19:56.469Z,19.63
2018-02-08T12:22:24.732Z,22.13
2018-02-08T12:24:53.729Z,22.23
2018-02-08T12:27:21.202Z,22.60
2018-02-08T12:29:49.445Z,21.77
2018-02-08T12:32:17.008Z,22.17
2018-02-08T12:34:44.575Z,22.53
2018-02-08T12:37:12.107Z,22.43
2018-02-08T12:39:39.588Z,23.40
2018-02-08T12:42:07.828Z,23.87
2018-02-08T12:44:35.313Z,24.70
2018-02-08T12:47:02.857Z,24.37
2018-02-08T12:49:30.317Z,23.00
2018-02-08T12:51:57.808Z,25.43
2018-02-08T12:54:25.277Z,25.10
2018-02-08T12:56:52.835Z,24.37
2018-02-08T12:59:21.069Z,24.53
2018-02-08T13:01:48.644Z,23.53
2018-02-08T13:04:16.897Z,23.35
2018-02-08T13:06:44.367Z,23.92
2018-02-08T13:09:11.895Z,23.15
2018-02-08T13:11:39.371Z,21.33
2018-02-08T13:14:06.855Z,23.80
2018-02-08T13:16:35.176Z,23.55
2018-02-08T13:19:02.692Z,23.87
2018-02-08T13:21:30.164Z,23.55
2018-02-08T13:23:58.421Z,24.98
2018-02-08T13:26:25.892Z,23.85
2018-02-08T13:28:54.148Z,25.02
2018-02-08T13:31:37.427Z,24.12
2018-02-08T13:34:04.898Z,24.20
2018-02-08T13:36:32.408Z,22.58
2018-02-08T13:39:00.695Z,23.52
2018-02-08T13:41:28.110Z,24.20
2018-02-08T13:43:55.590Z,21.77
2018-02-08T13:46:23.815Z,22.92
2018-02-08T13:49:01.971Z,23.58
2018-02-08T13:51:32.212Z,23.75
2018-02-08T13:54:02.332Z,23.55
2018-02-08T13:56:43.685Z,22.73
2018-02-08T13:59:12.693Z,23.67
2018-02-08T14:01:44.394Z,22.80
2018-02-08T14:04:11.869Z,21.73
2018-02-08T14:06:39.341Z,22.95
2018-02-08T14:09:06.997Z,23.83
2018-02-08T14:11:34.455Z,23.58
2018-02-08T14:14:02.147Z,22.37
2018-02-08T14:16:31.184Z,21.20
2018-02-08T14:18:58.653Z,20.37
2018-02-08T14:21:26.112Z,21.10
2018-02-08T14:23:53.572Z,21.92
2018-02-08T14:26:21.032Z,20.73
2018-02-08T14:28:48.600Z,21.12
2018-02-08T14:31:16.160Z,22.27
2018-02-08T14:33:43.715Z,21.10
2018-02-08T14:36:11.173Z,21.23
2018-02-08T14:38:38.690Z,20.73
2018-02-08T14:41:06.360Z,20.65
2018-02-08T14:43:35.153Z,19.10
2018-02-08T14:46:02.731Z,19.23
2018-02-08T14:48:30.400Z,18.58
2018-02-08T14:50:58.019Z,19.50
2018-02-08T14:53:25.476Z,20.37
2018-02-08T14:55:53.077Z,22.98
2018-02-08T14:58:20.641Z,18.27
2018-02-08T15:00:48.108Z,17.00
2018-02-08T15:03:15.644Z,19.23
2018-02-08T15:05:43.159Z,17.95
2018-02-08T15:08:10.615Z,19.37
2018-02-08T15:10:38.088Z,18.98
2018-02-08T15:13:05.588Z,18.02
2018-02-08T15:15:33.172Z,17.23
2018-02-08T15:18:00.599Z,20.58
2018-02-08T15:20:28.156Z,17.70
2018-02-08T15:22:55.616Z,17.45
2018-02-08T15:25:23.186Z,19.92
2018-02-08T15:27:50.640Z,19.55
2018-02-08T15:30:18.119Z,15.85
2018-02-08T15:32:46.363Z,17.42
2018-02-08T15:35:13.881Z,18.55
2018-02-08T15:37:42.076Z,19.20
2018-02-08T15:40:09.559Z,20.33
2018-02-08T15:42:37.030Z,18.73
2018-02-08T15:45:05.261Z,17.12
2018-02-08T15:47:32.749Z,16.55
2018-02-08T15:50:00.205Z,18.60
2018-02-08T15:52:27.777Z,18.45
2018-02-08T15:54:56.057Z,18.10
2018-02-08T15:57:24.475Z,19.48
2018-02-08T15:59:51.945Z,18.98
2018-02-08T16:02:19.419Z,19.70
2018-02-08T16:04:46.881Z,18.37
2018-02-08T16:07:14.358Z,18.73
2018-02-08T16:09:42.616Z,18.62
2018-02-08T16:12:10.094Z,19.12
2018-02-08T16:14:38.357Z,18.77
2018-02-08T16:17:05.827Z,18.12
2018-02-08T16:19:34.065Z,17.55
2018-02-08T16:22:01.627Z,19.50
2018-02-08T16:24:29.192Z,18.83
2018-02-08T16:26:56.689Z,18.92
2018-02-08T16:29:24.162Z,18.37
2018-02-08T16:31:51.621Z,19.42
2018-02-08T16:34:19.144Z,19.25
2018-02-08T16:36:47.363Z,19.92
2018-02-08T16:39:14.828Z,19.77
2018-02-08T16:41:42.296Z,19.25
2018-02-08T16:44:09.818Z,19.37
2018-02-08T16:46:37.281Z,20.45
2018-02-08T16:49:04.892Z,19.85
2018-02-08T16:51:32.364Z,22.02
2018-02-08T16:53:59.833Z,20.67
2018-02-08T16:56:28.101Z,18.80
2018-02-08T16:58:55.565Z,21.30
2018-02-08T17:01:23.815Z,22.77
2018-02-08T17:03:51.298Z,23.25
2018-02-08T17:06:19.535Z,21.67
2018-02-08T17:08:46.988Z,21.12
2018-02-08T17:11:15.220Z,20.15
2018-02-08T17:13:42.694Z,19.77
2018-02-08T17:16:10.147Z,21.35
2018-02-08T17:18:37.632Z,21.10
2018-02-08T17:21:05.087Z,20.30
2018-02-08T17:23:32.662Z,23.33
2018-02-08T17:26:00.232Z,20.35
2018-02-08T17:28:27.688Z,21.52
2018-02-08T17:30:55.916Z,18.02
2018-02-08T17:33:23.499Z,21.10
2018-02-08T17:35:50.964Z,21.45
2018-02-08T17:38:18.545Z,22.48
2018-02-08T17:40:46.773Z,20.20
2018-02-08T17:43:14.267Z,22.00
2018-02-08T17:45:41.776Z,21.52
2018-02-08T17:48:09.305Z,22.52
2018-02-08T17:50:37.521Z,20.30
2018-02-08T17:53:05.004Z,20.90
2018-02-08T17:55:32.588Z,20.42
2018-02-08T17:58:00.913Z,22.17
2018-02-08T18:00:28.431Z,22.17
2018-02-08T18:02:55.966Z,21.83
2018-02-08T18:05:23.507Z,22.08
2018-02-08T18:07:50.969Z,21.00
2018-02-08T18:10:18.448Z,22.02
2018-02-08T18:12:47.634Z,20.92
2018-02-08T18:15:15.178Z,21.30
2018-02-08T18:17:42.678Z,21.20
2018-02-08T18:20:10.199Z,20.90
2018-02-08T18:22:37.673Z,21.83
2018-02-08T18:25:05.890Z,21.83
2018-02-08T18:27:33.384Z,21.75
2018-02-08T18:30:00.942Z,21.75
2018-02-08T18:32:28.413Z,21.23
2018-02-08T18:34:55.886Z,23.05
2018-02-08T18:37:24.130Z,22.62
2018-02-08T18:39:51.626Z,22.90
2018-02-08T18:42:19.865Z,22.62
2018-02-08T18:44:47.333Z,22.80
2018-02-08T18:47:14.802Z,21.40
2018-02-08T18:49:43.048Z,22.33
2018-02-08T18:52:10.540Z,22.27
2018-02-08T18:54:38.045Z,21.58
2018-02-08T18:57:05.517Z,23.08
2018-02-08T18:59:33.007Z,22.30
2018-02-08T19:02:01.261Z,21.80
2018-02-08T19:04:28.718Z,22.17
2018-02-08T19:06:56.187Z,22.17
2018-02-08T19:09:23.728Z,21.75
2018-02-08T19:11:51.200Z,22.23
2018-02-08T19:14:18.762Z,22.13
2018-02-08T19:16:46.254Z,21.65
2018-02-08T19:19:13.813Z,23.50
2018-02-08T19:21:41.311Z,23.02
2018-02-08T19:24:08.779Z,21.65
2018-02-08T19:26:36.294Z,22.20
2018-02-08T19:29:04.504Z,22.58
2018-02-08T19:31:31.980Z,24.45
2018-02-08T19:33:59.465Z,23.95
2018-02-08T19:36:26.918Z,21.90
2018-02-08T19:38:54.393Z,23.90
2018-02-08T19:41:22.007Z,20.88
2018-02-08T19:43:49.483Z,21.55
2018-02-08T19:46:17.705Z,23.12
2018-02-08T19:48:45.190Z,22.05
2018-02-08T19:51:12.640Z,21.60
2018-02-08T19:53:40.117Z,21.00
2018-02-08T19:56:07.821Z,22.23
2018-02-08T19:58:35.288Z,23.38
2018-02-08T20:01:02.752Z,22.02
2018-02-08T20:03:30.231Z,24.08
2018-02-08T20:05:57.782Z,22.48
2018-02-08T20:08:25.248Z,24.00
2018-02-08T20:10:53.308Z,22.15
2018-02-08T20:13:21.049Z,24.17
2018-02-08T20:15:48.544Z,24.20
2018-02-08T20:18:16.016Z,23.58
2018-02-08T20:20:44.264Z,24.90
2018-02-08T20:23:11.735Z,23.45
2018-02-08T20:25:44.123Z,24.52
2018-02-08T20:28:11.596Z,25.27
2018-02-08T20:30:39.069Z,24.37
2018-02-08T20:33:06.538Z,23.33
2018-02-08T20:35:34.003Z,25.42
2018-02-08T20:38:01.482Z,22.98
2018-02-08T20:40:29.383Z,24.17
2018-02-08T20:46:01.249Z,23.27
2018-02-08T20:48:29.501Z,24.87
2018-02-08T20:50:56.972Z,25.45
2018-02-08T20:53:24.451Z,24.58
2018-02-08T20:55:52.815Z,24.15
2018-02-08T20:58:20.235Z,24.20
2018-02-08T21:00:47.723Z,24.33
2018-02-08T21:03:15.277Z,26.48
2018-02-08T21:05:42.924Z,24.77
2018-02-08T21:08:10.397Z,24.17
2018-02-08T21:10:37.944Z,25.62
2018-02-08T21:13:05.508Z,26.80
2018-02-08T21:15:33.015Z,23.87
2018-02-08T21:18:00.522Z,27.65
2018-02-08T21:20:28.081Z,25.75
2018-02-08T21:22:55.562Z,25.42
2018-02-08T21:25:23.783Z,27.65
2018-02-08T21:27:51.270Z,27.83
2018-02-08T21:30:18.756Z,26.77
2018-02-08T21:32:46.996Z,26.60
2018-02-08T21:35:14.455Z,27.50
2018-02-08T21:37:42.012Z,27.48
2018-02-08T21:40:09.480Z,28.48
2018-02-08T21:42:37.032Z,30.92
2018-02-08T21:45:04.536Z,30.48
2018-02-08T21:47:32.000Z,28.33
2018-02-08T21:49:59.478Z,27.40
2018-02-08T21:52:26.954Z,29.67
2018-02-08T21:54:54.415Z,29.25
2018-02-08T21:57:21.896Z,30.80
2018-02-08T21:59:49.355Z,29.50
2018-02-08T22:02:17.595Z,27.37
2018-02-08T22:04:45.069Z,27.35
2018-02-08T22:07:12.620Z,28.52
2018-02-08T22:09:40.109Z,26.70
2018-02-08T22:12:08.362Z,28.58
2018-02-08T22:14:36.686Z,29.12
2018-02-08T22:17:04.893Z,31.05
2018-02-08T22:19:32.373Z,29.40
2018-02-08T22:21:59.949Z,28.95
2018-02-08T22:24:27.429Z,29.37
2018-02-08T22:26:55.711Z,26.23
2018-02-08T22:29:23.242Z,29.50
2018-02-08T22:31:50.700Z,27.50
2018-02-08T22:34:18.948Z,29.35
2018-02-08T22:36:46.412Z,29.12
2018-02-08T22:39:15.041Z,27.35
2018-02-08T22:41:42.552Z,29.70
2018-02-08T22:44:10.217Z,29.12
2018-02-08T22:46:37.713Z,30.52
2018-02-08T22:49:05.225Z,30.00
2018-02-08T22:51:32.689Z,30.37
2018-02-08T22:54:00.155Z,29.17
2018-02-08T22:56:28.417Z,29.65
2018-02-08T22:58:55.880Z,30.50
2018-02-08T23:01:24.120Z,30.00
2018-02-08T23:03:51.615Z,31.87
2018-02-08T23:06:19.881Z,29.08
2018-02-08T23:08:47.351Z,30.33
2018-02-08T23:11:15.589Z,28.67
2018-02-08T23:13:43.061Z,30.17
2018-02-08T23:16:10.629Z,31.25
2018-02-08T23:18:38.117Z,30.80
2018-02-08T23:21:05.635Z,27.60
2018-02-08T23:23:33.888Z,28.40
2018-02-08T23:26:01.472Z,29.80
2018-02-08T23:28:28.985Z,27.58
2018-02-08T23:30:56.467Z,28.08
2018-02-08T23:33:23.945Z,29.37
2018-02-08T23:35:51.408Z,27.15
2018-02-08T23:38:18.886Z,28.62
2018-02-08T23:40:46.423Z,27.70
2018-02-08T23:43:13.986Z,26.20
2018-02-08T23:45:42.262Z,29.50
2018-02-08T23:48:09.742Z,28.98
2018-02-08T23:50:37.979Z,31.10
2018-02-08T23:53:05.457Z,27.23
2018-02-08T23:55:32.907Z,30.70
2018-02-08T23:58:01.144Z,29.60
